Time;durP1;ratioP1;P1;durP2;ratioP2;P2;SDS_P1;SDS_P2;PMS_P1;PMS_P2;Temp;Humidity;BMP_temperature;BMP_pressure;BME280_temperature;BME280_humidity;BME280_pressure;Samples;Min_cycle;Max_cycle;Signal;HPM_P1;HPM_P2
2023/08/01 00:02:25;;;;;;;5.60;4.43;;;;;;;-141.84;88.20;20722.41;5062106;28;20224;-59
2023/08/01 00:04:53;;;;;;;7.47;4.60;;;;;;;-141.84;86.59;20771.19;5060627;28;20310;-60
2023/08/01 00:07:23;;;;;;;6.53;4.57;;;;;;;-141.84;87.04;20787.47;5061858;28;20329;-59
2023/08/01 00:09:52;;;;;;;5.75;4.18;;;;;;;-141.84;87.85;20777.28;5063081;28;20247;-59
2023/08/01 00:12:20;;;;;;;6.95;4.72;;;;;;;-141.84;87.81;20750.88;5062489;28;20328;-60
2023/08/01 00:14:50;;;;;;;6.00;4.70;;;;;;;-141.84;87.95;20763.06;5054569;28;20516;-60
2023/08/01 00:17:19;;;;;;;4.28;3.88;;;;;;;-141.84;88.40;20730.53;5062057;28;20782;-59
2023/08/01 00:19:47;;;;;;;5.30;4.13;;;;;;;-141.84;88.11;20771.19;5048018;28;20311;-60
2023/08/01 00:22:16;;;;;;;7.32;4.70;;;;;;;-141.84;88.26;20730.53;5042228;28;20200;-59
2023/08/01 00:24:44;;;;;;;6.57;4.55;;;;;;;-141.84;87.44;20785.44;5034842;28;20252;-60
2023/08/01 00:27:13;;;;;;;6.40;4.40;;;;;;;-141.84;87.86;20736.63;5042298;28;20240;-60
2023/08/01 00:29:42;;;;;;;6.18;4.38;;;;;;;-141.84;88.45;20756.97;5042456;28;20233;-60
2023/08/01 00:32:12;;;;;;;6.55;4.50;;;;;;;-141.84;87.63;20781.38;5054934;28;20303;-60
2023/08/01 00:34:43;;;;;;;6.30;3.83;;;;;;;-141.84;87.26;20779.31;5054532;28;20307;-59
2023/08/01 00:37:13;;;;;;;5.72;4.20;;;;;;;-141.84;85.93;20793.56;5062163;28;20510;-60
2023/08/01 00:39:41;;;;;;;6.13;4.35;;;;;;;-141.84;86.46;20793.56;5062197;28;20205;-59
2023/08/01 00:42:10;;;;;;;5.82;4.50;;;;;;;-141.84;86.23;20769.16;5061654;28;20328;-60
2023/08/01 00:44:38;;;;;;;4.80;3.97;;;;;;;-141.84;86.07;20773.22;5054463;28;20320;-59
2023/08/01 00:47:07;;;;;;;4.30;3.90;;;;;;;-141.84;85.98;20746.81;5063030;28;20597;-59
2023/08/01 00:49:37;;;;;;;5.38;3.60;;;;;;;-141.84;86.87;20767.13;5065193;28;20262;-60
2023/08/01 00:52:07;;;;;;;4.10;3.67;;;;;;;-141.84;87.28;20767.13;5066190;28;20205;-60
2023/08/01 00:54:36;;;;;;;4.40;3.80;;;;;;;-141.84;87.55;20740.69;5058824;28;20299;-60
2023/08/01 00:57:06;;;;;;;5.15;3.55;;;;;;;-141.84;87.97;20732.56;5065455;28;20326;-60
2023/08/01 00:59:35;;;;;;;5.32;3.40;;;;;;;-141.84;86.98;20765.09;5065664;28;20319;-60
2023/08/01 01:02:04;;;;;;;4.70;3.67;;;;;;;-141.84;87.08;20765.09;5065350;28;20309;-60
2023/08/01 01:04:33;;;;;;;4.50;4.07;;;;;;;-141.84;87.45;20716.31;5057741;28;20232;-60
2023/08/01 01:07:07;;;;;;;4.70;3.38;;;;;;;-141.84;87.56;20730.53;5065904;28;20296;-60
2023/08/01 01:09:35;;;;;;;4.78;3.53;;;;;;;-141.84;87.86;20722.41;5065399;28;20775;-59
2023/08/01 01:12:04;;;;;;;4.95;3.25;;;;;;;-141.84;87.59;20714.28;5065222;28;20274;-59
2023/08/01 01:14:33;;;;;;;4.30;3.60;;;;;;;-141.84;88.08;20704.13;5057836;28;20260;-60
2023/08/01 01:17:01;;;;;;;4.43;3.13;;;;;;;-141.84;88.20;20693.94;5063713;28;20251;-60
2023/08/01 01:19:30;;;;;;;4.97;3.35;;;;;;;-141.84;87.28;20720.38;5053065;28;20456;-59
2023/08/01 01:22:00;;;;;;;4.78;3.15;;;;;;;-141.84;87.35;20716.31;5045279;28;20202;-59
2023/08/01 01:24:29;;;;;;;4.22;3.03;;;;;;;-141.84;87.83;20748.84;5042409;28;20303;-59
2023/08/01 01:26:59;;;;;;;4.22;3.33;;;;;;;-141.84;87.20;20740.69;5045834;28;20256;-60
2023/08/01 01:29:28;;;;;;;4.68;3.22;;;;;;;-141.84;86.19;20771.19;5064908;28;20240;-59
2023/08/01 01:31:58;;;;;;;3.83;3.42;;;;;;;-141.84;84.97;20795.59;5064710;28;20229;-60
2023/08/01 01:34:27;;;;;;;4.97;3.33;;;;;;;-141.84;85.51;20781.38;5064422;28;20332;-58
2023/08/01 01:36:55;;;;;;;4.05;3.30;;;;;;;-141.84;84.80;20797.63;5061262;28;20316;-60
2023/08/01 01:39:25;;;;;;;5.45;3.38;;;;;;;-141.84;84.79;20803.72;5064238;28;20316;-60
2023/08/01 01:41:54;;;;;;;3.40;3.05;;;;;;;-141.84;84.74;20795.59;5064256;28;20236;-60
2023/08/01 01:44:22;;;;;;;3.67;2.95;;;;;;;-141.84;83.85;20791.53;5064459;28;20839;-60
2023/08/01 01:46:51;;;;;;;4.38;3.33;;;;;;;-141.84;83.29;20809.81;5057547;28;20386;-60
2023/08/01 01:49:19;;;;;;;4.47;3.55;;;;;;;-141.84;82.97;20793.56;5063738;28;20262;-60
2023/08/01 01:51:48;;;;;;;4.03;3.15;;;;;;;-141.84;81.65;20852.50;5065121;28;20236;-61
2023/08/01 01:54:16;;;;;;;5.50;3.65;;;;;;;-141.84;82.35;20787.47;5064258;28;20720;-60
2023/08/01 01:56:46;;;;;;;3.83;3.42;;;;;;;-141.84;83.46;20803.72;5057514;28;20315;-60
2023/08/01 01:59:14;;;;;;;3.83;3.20;;;;;;;-141.84;84.11;20769.16;5064057;28;20319;-60
2023/08/01 02:01:43;;;;;;;4.70;3.70;;;;;;;-141.84;85.31;20765.09;5064809;28;20236;-60
2023/08/01 02:04:11;;;;;;;5.75;3.65;;;;;;;-141.84;85.72;20754.94;5064230;28;20295;-60
2023/08/01 02:06:40;;;;;;;6.80;3.70;;;;;;;-141.84;86.75;20744.78;5057197;28;20232;-59
2023/08/01 02:09:09;;;;;;;6.93;4.15;;;;;;;-141.84;87.37;20712.25;5063874;28;20716;-61
2023/08/01 02:11:37;;;;;;;5.30;4.00;;;;;;;-141.84;88.25;20704.13;5064020;28;20256;-58
2023/08/01 02:14:07;;;;;;;6.13;4.35;;;;;;;-141.84;88.47;20704.13;5063947;28;20235;-60
2023/08/01 02:16:35;;;;;;;6.78;3.78;;;;;;;-141.84;89.02;20681.75;5056761;28;20307;-60
2023/08/01 02:19:04;;;;;;;5.00;3.60;;;;;;;-141.84;89.73;20679.72;5059694;28;20213;-61
2023/08/01 02:21:32;;;;;;;6.32;4.30;;;;;;;-141.84;90.06;20659.38;5064112;28;20272;-60
2023/08/01 02:24:01;;;;;;;7.25;4.00;;;;;;;-141.84;90.01;20712.25;5063619;28;20327;-58
2023/08/01 02:26:30;;;;;;;7.15;4.28;;;;;;;-141.84;90.39;20689.88;5056484;28;20366;-60
2023/08/01 02:28:58;;;;;;;5.05;4.15;;;;;;;-141.84;90.09;20657.34;5064307;28;20233;-59
2023/08/01 02:31:28;;;;;;;4.88;4.20;;;;;;;-141.84;91.29;20618.72;5063874;28;20229;-59
2023/08/01 02:33:57;;;;;;;6.13;4.30;;;;;;;-141.84;92.06;20661.44;5063979;28;20200;-59
2023/08/01 02:36:25;;;;;;;5.03;4.53;;;;;;;-141.84;92.55;20628.91;5064051;28;20242;-58
2023/08/01 02:38:54;;;;;;;5.55;4.32;;;;;;;-141.84;93.38;20602.47;5058767;28;20722;-59
2023/08/01 02:41:22;;;;;;;4.65;4.13;;;;;;;-141.84;93.68;20598.41;5063385;28;20339;-59
2023/08/01 02:43:51;;;;;;;6.95;3.85;;;;;;;-141.84;93.54;20649.22;5063572;28;20311;-60
2023/08/01 02:46:19;;;;;;;5.30;3.67;;;;;;;-141.84;93.43;20608.56;5063382;28;20581;-59
2023/08/01 02:48:50;;;;;;;5.38;4.32;;;;;;;-141.84;93.55;20576.03;5056336;28;20237;-60
2023/08/01 02:51:18;;;;;;;4.07;3.67;;;;;;;-141.84;94.01;20606.53;5063331;28;20252;-59
2023/08/01 02:53:47;;;;;;;4.65;4.18;;;;;;;-141.84;94.24;20612.63;5063371;28;20683;-58
2023/08/01 02:56:15;;;;;;;5.78;4.10;;;;;;;-141.84;94.38;20584.19;5063901;28;20314;-60
2023/08/01 02:58:44;;;;;;;4.97;4.10;;;;;;;-141.84;93.34;20602.47;5057161;28;20307;-58
2023/08/01 03:01:13;;;;;;;5.10;4.07;;;;;;;-141.84;93.35;20582.16;5064028;28;20205;-59
2023/08/01 03:03:42;;;;;;;6.05;3.85;;;;;;;-141.84;93.91;20616.69;5064644;28;20671;-59
2023/08/01 03:06:12;;;;;;;7.10;4.05;;;;;;;-141.84;93.97;20586.22;5064446;28;20282;-60
2023/08/01 03:08:40;;;;;;;4.70;4.20;;;;;;;-141.84;94.19;20578.09;5057035;28;20225;-60
2023/08/01 03:11:09;;;;;;;4.93;3.90;;;;;;;-141.84;93.39;20622.81;5064026;28;20252;-58
2023/08/01 03:13:38;;;;;;;4.35;3.63;;;;;;;-141.84;93.18;20630.94;5064532;28;20229;-58
2023/08/01 03:16:06;;;;;;;4.07;3.58;;;;;;;-141.84;93.26;20624.84;5045482;28;20324;-60
2023/08/01 03:18:35;;;;;;;5.47;3.42;;;;;;;-141.84;93.62;20639.06;5042299;28;20217;-59
2023/08/01 03:21:04;;;;;;;5.70;3.10;;;;;;;-141.84;93.90;20555.72;5057982;28;20256;-59
2023/08/01 03:23:34;;;;;;;4.00;3.33;;;;;;;-141.84;93.85;20588.25;5063754;28;20795;-59
2023/08/01 03:26:02;;;;;;;4.18;3.30;;;;;;;-141.84;93.99;20588.25;5064789;28;20256;-58
2023/08/01 03:28:31;;;;;;;4.05;3.60;;;;;;;-141.84;94.59;20549.63;5056859;28;20310;-59
2023/08/01 03:31:00;;;;;;;5.07;3.67;;;;;;;-141.84;94.81;20529.28;5064989;28;20201;-59
2023/08/01 03:33:29;;;;;;;4.25;3.72;;;;;;;-141.84;95.02;20580.13;5064398;28;20240;-59
2023/08/01 03:35:57;;;;;;;4.43;3.38;;;;;;;-141.84;94.80;20555.72;5064372;28;20260;-59
2023/08/01 03:38:26;;;;;;;4.10;3.30;;;;;;;-141.84;94.56;20578.09;5064185;28;20307;-58
2023/08/01 03:40:56;;;;;;;4.40;3.60;;;;;;;-141.84;94.38;20590.28;5061330;28;20228;-60
2023/08/01 03:43:24;;;;;;;3.80;3.33;;;;;;;-141.84;94.59;20596.38;5064121;28;20285;-58
2023/08/01 03:45:53;;;;;;;4.25;3.00;;;;;;;-141.84;94.44;20600.44;5064442;28;20200;-58
2023/08/01 03:48:21;;;;;;;3.63;2.83;;;;;;;-141.84;93.79;20602.47;5064133;28;20593;-60
2023/08/01 03:50:50;;;;;;;4.75;3.30;;;;;;;-141.84;93.13;20592.31;5056659;28;20267;-58
2023/08/01 03:53:18;;;;;;;3.47;3.15;;;;;;;-141.84;93.42;20580.13;5064373;28;20256;-59
2023/08/01 03:55:48;;;;;;;3.58;3.05;;;;;;;-141.84;93.72;20551.66;5063791;28;20316;-58
2023/08/01 03:58:18;;;;;;;4.43;3.25;;;;;;;-141.84;93.76;20539.47;5064331;28;20258;-59
2023/08/01 04:00:48;;;;;;;3.30;3.00;;;;;;;-141.84;94.13;20598.41;5057532;28;20312;-59
2023/08/01 04:03:16;;;;;;;3.63;3.22;;;;;;;-141.84;94.17;20596.38;5063910;28;20315;-59
2023/08/01 04:05:45;;;;;;;5.18;3.15;;;;;;;-141.84;94.36;20596.38;5063869;28;20232;-58
2023/08/01 04:08:13;;;;;;;4.32;3.40;;;;;;;-141.84;93.75;20588.25;5064211;28;20316;-60
2023/08/01 04:10:41;;;;;;;3.60;3.10;;;;;;;-141.84;93.97;20618.72;5051505;28;20560;-60
2023/08/01 04:13:10;;;;;;;4.00;3.10;;;;;;;-141.84;93.65;20608.56;5043870;28;20309;-59
2023/08/01 04:15:40;;;;;;;3.38;3.00;;;;;;;-141.84;93.38;20604.50;5044392;28;20244;-59
2023/08/01 04:18:08;;;;;;;4.97;3.30;;;;;;;-141.84;93.51;20592.31;5063356;28;20259;-59
2023/08/01 04:20:37;;;;;;;4.38;3.22;;;;;;;-141.84;93.83;20618.72;5037029;28;20316;-59
2023/08/01 04:23:05;;;;;;;4.15;3.00;;;;;;;-141.84;93.76;20639.06;5047599;28;20767;-59
2023/08/01 04:25:34;;;;;;;3.75;3.35;;;;;;;-141.84;94.02;20574.00;5048014;28;20313;-59
2023/08/01 04:28:02;;;;;;;4.85;3.17;;;;;;;-141.84;94.29;20612.63;5048227;28;20215;-60
2023/08/01 04:30:33;;;;;;;3.60;3.08;;;;;;;-141.84;94.01;20610.59;5040739;28;20582;-60
2023/08/01 04:33:02;;;;;;;3.80;3.00;;;;;;;-141.84;94.13;20590.28;5047433;28;20260;-59
2023/08/01 04:35:31;;;;;;;4.63;3.50;;;;;;;-141.84;94.57;20622.81;5047113;28;20268;-59
2023/08/01 04:37:59;;;;;;;3.50;3.00;;;;;;;-141.84;94.21;20606.53;5054444;28;20255;-59
2023/08/01 04:40:28;;;;;;;4.85;3.35;;;;;;;-141.84;93.99;20586.22;5065625;28;20224;-60
2023/08/01 04:42:56;;;;;;;3.30;3.00;;;;;;;-141.84;93.98;20588.25;5067144;28;20296;-59
2023/08/01 04:45:25;;;;;;;3.50;3.00;;;;;;;-141.84;94.20;20620.78;5067095;28;20307;-59
2023/08/01 04:47:53;;;;;;;6.15;2.95;;;;;;;-141.84;94.60;20584.19;5067048;28;20228;-59
2023/08/01 04:50:23;;;;;;;3.53;3.20;;;;;;;-141.84;94.65;20580.13;5066753;28;20252;-58
2023/08/01 04:52:52;;;;;;;3.67;3.10;;;;;;;-141.84;94.81;20624.84;5060978;28;20723;-59
2023/08/01 04:55:20;;;;;;;3.35;3.05;;;;;;;-141.84;94.26;20604.50;5067174;28;20204;-60
2023/08/01 04:57:49;;;;;;;3.30;2.85;;;;;;;-141.84;93.58;20618.72;5067275;28;20200;-61
2023/08/01 05:00:18;;;;;;;3.30;2.90;;;;;;;-141.84;92.83;20639.06;5066832;28;20727;-59
2023/08/01 05:02:46;;;;;;;2.70;2.50;;;;;;;-141.84;92.57;20653.28;5060004;28;20256;-59
2023/08/01 05:05:15;;;;;;;3.65;2.60;;;;;;;-141.84;92.50;20643.13;5066815;28;20772;-60
2023/08/01 05:07:45;;;;;;;4.03;2.78;;;;;;;-141.84;92.30;20614.66;5055486;28;20229;-58
2023/08/01 05:10:14;;;;;;;3.08;2.45;;;;;;;-141.84;92.44;20614.66;5065182;28;20228;-59
2023/08/01 05:12:45;;;;;;;4.25;2.95;;;;;;;-141.84;92.96;20618.72;5060189;28;20263;-59
2023/08/01 05:15:13;;;;;;;3.17;2.80;;;;;;;-141.84;92.28;20635.00;5066727;28;20253;-58
2023/08/01 05:17:42;;;;;;;2.72;2.53;;;;;;;-141.84;92.84;20637.03;5066913;28;20319;-59
2023/08/01 05:20:11;;;;;;;4.53;2.60;;;;;;;-141.84;92.81;20641.09;5049899;28;20233;-59
2023/08/01 05:22:40;;;;;;;4.07;2.50;;;;;;;-141.84;93.06;20598.41;5039359;28;20729;-59
2023/08/01 05:25:10;;;;;;;2.63;2.42;;;;;;;-141.84;93.33;20618.72;5046948;28;20887;-58
2023/08/01 05:27:38;;;;;;;3.92;2.60;;;;;;;-141.84;93.20;20608.56;5046840;28;20736;-60
2023/08/01 05:30:08;;;;;;;3.70;2.53;;;;;;;-141.84;93.17;20624.84;5045786;28;20328;-59
2023/08/01 05:32:36;;;;;;;3.70;2.65;;;;;;;-141.84;93.01;20616.69;5037057;28;20736;-60
2023/08/01 05:35:06;;;;;;;3.40;2.85;;;;;;;-141.84;93.35;20641.09;5045296;28;20275;-59
2023/08/01 05:37:34;;;;;;;2.75;2.55;;;;;;;-141.84;93.06;20665.50;5047913;28;20295;-58
2023/08/01 05:40:04;;;;;;;3.30;2.20;;;;;;;-141.84;93.03;20600.44;5065379;28;20657;-58
2023/08/01 05:42:33;;;;;;;3.22;2.47;;;;;;;-141.84;92.76;20606.53;5056765;28;20248;-59
2023/08/01 05:45:03;;;;;;;2.60;2.40;;;;;;;-141.84;92.96;20635.00;5064439;28;20663;-59
2023/08/01 05:47:32;;;;;;;4.47;2.45;;;;;;;-141.84;93.01;20610.59;5064906;28;20232;-58
2023/08/01 05:50:00;;;;;;;2.67;2.38;;;;;;;-141.84;93.15;20612.63;5057934;28;20700;-60
2023/08/01 05:52:30;;;;;;;3.38;2.35;;;;;;;-141.84;92.50;20653.28;5042507;28;20225;-59
2023/08/01 05:54:59;;;;;;;3.78;2.40;;;;;;;-141.84;92.62;20610.59;5065216;28;20304;-58
2023/08/01 05:57:27;;;;;;;3.05;2.53;;;;;;;-141.84;93.03;20643.13;5064138;28;20320;-58
2023/08/01 05:59:57;;;;;;;3.45;2.50;;;;;;;-141.84;93.02;20661.44;5063948;28;20221;-59
2023/08/01 06:02:26;;;;;;;2.80;2.25;;;;;;;-141.84;93.47;20622.81;5063683;28;20745;-59
2023/08/01 06:04:54;;;;;;;2.55;2.28;;;;;;;-141.84;93.17;20641.09;5022359;28;20238;-59
2023/08/01 06:07:23;;;;;;;5.28;2.10;;;;;;;-141.84;93.07;20612.63;5023932;28;20752;-60
2023/08/01 06:09:52;;;;;;;2.42;2.00;;;;;;;-141.84;92.70;20659.38;5039781;28;20213;-59
2023/08/01 06:12:20;;;;;;;2.28;2.08;;;;;;;-141.84;92.86;20659.38;5043482;28;20259;-59
2023/08/01 06:14:49;;;;;;;4.10;2.30;;;;;;;-141.84;93.36;20630.94;5035279;28;20543;-60
2023/08/01 06:17:19;;;;;;;4.13;1.90;;;;;;;-141.84;93.24;20671.59;5044335;28;20260;-60
2023/08/01 06:19:49;;;;;;;2.90;2.15;;;;;;;-141.84;92.69;20653.28;5029654;28;20287;-60
2023/08/01 06:22:18;;;;;;;2.78;1.88;;;;;;;-141.84;92.28;20687.84;5023477;28;20559;-60
2023/08/01 06:24:46;;;;;;;3.10;1.92;;;;;;;-141.84;92.00;20655.31;5016649;28;20888;-59
2023/08/01 06:27:15;;;;;;;3.85;1.80;;;;;;;-141.84;91.80;20714.28;5023606;28;20312;-59
2023/08/01 06:29:43;;;;;;;2.80;1.90;;;;;;;-141.84;92.08;20677.69;5023833;28;20613;-59
2023/08/01 06:32:12;;;;;;;2.47;1.40;;;;;;;-141.84;91.21;20669.56;5023263;28;20288;-60
2023/08/01 06:34:42;;;;;;;5.18;1.80;;;;;;;-141.84;91.27;20681.75;5018127;28;20309;-60
2023/08/01 06:37:11;;;;;;;1.50;1.33;;;;;;;-141.84;90.43;20698.00;5025249;28;20237;-60
2023/08/01 06:39:39;;;;;;;1.30;1.20;;;;;;;-141.84;90.80;20693.94;5044080;28;20209;-61
2023/08/01 06:42:08;;;;;;;1.75;1.40;;;;;;;-141.84;91.60;20708.19;5043428;28;20233;-59
2023/08/01 06:44:36;;;;;;;2.35;1.23;;;;;;;-141.84;90.53;20720.38;5035699;28;20325;-58
2023/08/01 06:47:05;;;;;;;1.38;1.15;;;;;;;-141.84;90.34;20722.41;5048864;28;20315;-60
2023/08/01 06:49:34;;;;;;;1.17;1.00;;;;;;;-141.84;89.95;20693.94;5047452;28;20669;-59
2023/08/01 06:52:04;;;;;;;1.77;1.10;;;;;;;-141.84;90.59;20702.09;5063567;28;20235;-59
2023/08/01 06:54:33;;;;;;;2.30;2.00;;;;;;;-141.84;90.52;20687.84;5055866;28;20294;-59
2023/08/01 06:57:04;;;;;;;2.47;1.20;;;;;;;-141.84;90.73;20700.03;5063658;28;20264;-59
2023/08/01 06:59:33;;;;;;;1.13;1.02;;;;;;;-141.84;90.63;20724.44;5058409;28;20232;-59
2023/08/01 07:02:02;;;;;;;1.23;1.00;;;;;;;-141.84;90.66;20695.97;5063124;28;20256;-59
2023/08/01 07:04:30;;;;;;;1.25;0.90;;;;;;;-141.84;90.78;20698.00;5055298;28;20692;-61
2023/08/01 07:06:59;;;;;;;0.90;0.90;;;;;;;-141.84;90.93;20691.91;5063729;28;20211;-60
2023/08/01 07:09:29;;;;;;;0.95;0.90;;;;;;;-141.84;91.22;20736.63;5063206;28;20314;-59
2023/08/01 07:11:57;;;;;;;1.27;0.90;;;;;;;-141.84;90.74;20691.91;5063073;28;20220;-59
2023/08/01 07:14:26;;;;;;;1.45;0.90;;;;;;;-141.84;91.52;20681.75;5063250;28;20228;-58
2023/08/01 07:16:54;;;;;;;2.67;2.47;;;;;;;-141.84;91.16;20718.34;5060607;28;20231;-59
2023/08/01 07:19:23;;;;;;;1.40;0.80;;;;;;;-141.84;89.48;20771.19;5051973;28;20655;-59
2023/08/01 07:21:51;;;;;;;1.40;0.70;;;;;;;-141.84;89.27;20748.84;5043554;28;20295;-60
2023/08/01 07:24:20;;;;;;;0.75;0.75;;;;;;;-141.84;89.82;20718.34;5042739;28;20264;-59
2023/08/01 07:26:49;;;;;;;1.48;1.10;;;;;;;-141.84;89.95;20708.19;5035680;28;20251;-59
2023/08/01 07:29:18;;;;;;;1.40;1.00;;;;;;;-141.84;90.20;20720.38;5042929;28;20248;-59
2023/08/01 07:31:46;;;;;;;1.30;0.90;;;;;;;-141.84;89.72;20712.25;5042532;28;20782;-59
2023/08/01 07:34:15;;;;;;;0.82;0.70;;;;;;;-141.84;89.48;20667.53;5042526;28;20688;-60
2023/08/01 07:36:44;;;;;;;1.02;0.70;;;;;;;-141.84;89.40;20693.94;5036038;28;20209;-58
2023/08/01 07:39:12;;;;;;;0.68;0.50;;;;;;;-141.84;89.68;20673.63;5059599;28;20263;-59
2023/08/01 07:41:41;;;;;;;0.90;0.60;;;;;;;-141.84;89.65;20643.13;5062310;28;20232;-59
2023/08/01 07:44:10;;;;;;;0.80;0.60;;;;;;;-141.84;90.22;20663.47;5062332;28;20320;-59
2023/08/01 07:46:39;;;;;;;0.95;0.60;;;;;;;-141.84;90.52;20651.25;5055437;28;20232;-59
2023/08/01 07:49:08;;;;;;;2.05;0.77;;;;;;;-141.84;90.18;20645.16;5062327;28;20723;-59
2023/08/01 07:51:36;;;;;;;1.83;0.80;;;;;;;-141.84;89.78;20687.84;5062472;28;20220;-58
2023/08/01 07:54:05;;;;;;;1.40;0.80;;;;;;;-141.84;89.91;20663.47;5062068;28;20782;-60
2023/08/01 07:56:33;;;;;;;1.10;1.00;;;;;;;-141.84;90.72;20677.69;5042422;28;20313;-58
2023/08/01 07:59:02;;;;;;;1.48;0.80;;;;;;;-141.84;91.43;20685.81;5042704;28;20319;-58
2023/08/01 08:01:31;;;;;;;1.08;0.80;;;;;;;-141.84;91.28;20651.25;5059669;28;20293;-59
2023/08/01 08:04:00;;;;;;;1.30;0.80;;;;;;;-141.84;90.10;20704.13;5062503;28;20201;-59
2023/08/01 08:06:31;;;;;;;1.95;0.68;;;;;;;-141.84;89.58;20718.34;5054474;28;20716;-60
2023/08/01 08:08:59;;;;;;;0.82;0.65;;;;;;;-141.84;89.94;20718.34;5062468;28;20243;-60
2023/08/01 08:11:28;;;;;;;1.23;0.70;;;;;;;-141.84;89.46;20700.03;5062109;28;20255;-59
2023/08/01 08:13:56;;;;;;;2.00;0.88;;;;;;;-141.84;88.84;20689.88;5061913;28;20307;-59
2023/08/01 08:16:25;;;;;;;0.82;0.73;;;;;;;-141.84;89.04;20728.50;5062610;28;20266;-58
2023/08/01 08:18:55;;;;;;;1.33;0.90;;;;;;;-141.84;87.53;20730.53;5051053;28;20217;-60
2023/08/01 08:21:23;;;;;;;1.13;0.90;;;;;;;-141.84;86.78;20756.97;5042198;28;20311;-59
2023/08/01 08:23:52;;;;;;;1.40;0.80;;;;;;;-141.84;87.33;20728.50;5042495;28;20587;-58
2023/08/01 08:26:20;;;;;;;0.60;0.60;;;;;;;-141.84;87.14;20748.84;5041990;28;20308;-59
2023/08/01 08:28:49;;;;;;;1.75;0.80;;;;;;;-141.84;87.33;20756.97;5035221;28;20316;-60
2023/08/01 08:31:17;;;;;;;1.00;0.80;;;;;;;-141.84;86.02;20815.91;5041744;28;20649;-59
2023/08/01 08:33:46;;;;;;;2.15;0.80;;;;;;;-141.84;85.39;20797.63;5042905;28;20297;-59
2023/08/01 08:36:16;;;;;;;1.23;0.80;;;;;;;-141.84;86.07;20822.03;5041992;28;20221;-60
2023/08/01 08:38:44;;;;;;;1.13;0.80;;;;;;;-141.84;85.21;20836.25;5048126;28;20224;-60
2023/08/01 08:41:20;;;;;;;0.80;0.70;;;;;;;-141.84;85.20;20866.75;5062376;28;20298;-59
2023/08/01 08:43:50;;;;;;;1.60;0.80;;;;;;;-141.84;84.27;20858.59;5062576;28;20341;-59
2023/08/01 08:46:20;;;;;;;1.08;0.70;;;;;;;-141.84;84.60;20856.56;5061885;28;20255;-59
2023/08/01 08:48:50;;;;;;;0.80;0.70;;;;;;;-141.84;85.17;20854.53;5055247;28;20365;-59
2023/08/01 08:51:19;;;;;;;0.70;0.60;;;;;;;-141.84;83.36;20913.50;5061459;28;20233;-60
2023/08/01 08:53:52;;;;;;;1.85;1.00;;;;;;;-141.84;84.64;20866.75;5061989;28;20311;-59
2023/08/01 08:56:22;;;;;;;0.82;0.63;;;;;;;-141.84;84.79;20817.94;5061625;28;20228;-59
2023/08/01 08:58:51;;;;;;;0.93;0.80;;;;;;;-141.84;85.16;20797.63;5054265;28;20688;-58
2023/08/01 09:01:20;;;;;;;0.90;0.50;;;;;;;-141.84;85.87;20775.25;5061632;28;20266;-58
2023/08/01 09:03:48;;;;;;;1.90;0.90;;;;;;;-141.84;86.53;20793.56;5062410;28;20209;-60
2023/08/01 09:06:24;;;;;;;1.88;0.70;;;;;;;-141.84;86.78;20805.75;5061578;28;20286;-58
2023/08/01 09:09:02;;;;;;;0.90;0.80;;;;;;;-141.84;87.10;20824.06;5058440;28;20307;-60
2023/08/01 09:11:38;;;;;;;1.63;0.70;;;;;;;-141.84;86.48;20822.03;5065194;28;20286;-60
2023/08/01 09:14:07;;;;;;;0.82;0.80;;;;;;;-141.84;86.15;20824.06;5065783;28;20228;-58
2023/08/01 09:16:36;;;;;;;1.15;0.70;;;;;;;-141.84;86.41;20832.19;5058123;28;20237;-59
2023/08/01 09:19:07;;;;;;;1.05;0.75;;;;;;;-141.84;86.39;20856.56;5057352;28;20208;-59
2023/08/01 09:21:39;;;;;;;1.45;0.75;;;;;;;-141.84;86.53;20862.69;5045429;28;20255;-58
2023/08/01 09:24:12;;;;;;;0.70;0.70;;;;;;;-141.84;85.91;20907.41;5045535;28;20712;-59
2023/08/01 09:26:41;;;;;;;1.65;0.93;;;;;;;-141.84;85.50;20929.75;5037846;28;20628;-59
2023/08/01 09:29:10;;;;;;;4.75;1.00;;;;;;;-141.84;83.78;21007.00;5045157;28;20271;-60
2023/08/01 09:31:40;;;;;;;2.28;0.95;;;;;;;-141.84;83.04;20992.78;5045104;28;20321;-60
2023/08/01 09:34:20;;;;;;;1.00;0.90;;;;;;;-141.84;81.82;21078.16;5045734;28;20662;-59
2023/08/01 09:36:50;;;;;;;2.00;1.17;;;;;;;-141.84;80.08;21137.13;5057964;28;20282;-60
2023/08/01 09:39:21;;;;;;;1.05;0.95;;;;;;;-141.84;79.17;21175.75;5064664;28;20761;-59
2023/08/01 09:41:57;;;;;;;1.45;1.00;;;;;;;-141.84;78.31;21204.22;5064713;28;20228;-59
2023/08/01 09:44:27;;;;;;;1.50;0.70;;;;;;;-141.84;77.00;21248.94;5064437;28;20232;-59
2023/08/01 09:47:00;;;;;;;1.17;0.90;;;;;;;-141.84;77.60;21204.22;5042964;28;20245;-58
2023/08/01 09:49:29;;;;;;;1.67;0.93;;;;;;;-141.84;77.74;21137.13;5049089;28;20319;-59
2023/08/01 09:52:01;;;;;;;1.17;1.07;;;;;;;-141.84;79.00;21078.16;5065102;28;20664;-58
2023/08/01 09:54:30;;;;;;;1.02;0.93;;;;;;;-141.84;79.72;21082.25;5057359;28;20452;-58
2023/08/01 09:56:59;;;;;;;1.52;1.10;;;;;;;-141.84;80.44;21013.13;5064868;28;20224;-59
2023/08/01 09:59:28;;;;;;;1.70;1.08;;;;;;;-141.84;81.11;21065.97;5064222;28;20224;-59
2023/08/01 10:01:58;;;;;;;2.00;0.90;;;;;;;-141.84;81.43;20970.41;5064164;28;20252;-59
2023/08/01 10:04:30;;;;;;;1.30;0.73;;;;;;;-141.84;82.56;20887.06;5064782;28;20237;-59
2023/08/01 10:07:04;;;;;;;1.05;0.80;;;;;;;-141.84;83.57;20872.84;5064760;28;20223;-60
2023/08/01 10:09:35;;;;;;;0.70;0.60;;;;;;;-141.84;83.20;20878.94;5064727;28;20299;-60
2023/08/01 10:12:05;;;;;;;0.80;0.60;;;;;;;-141.84;83.60;20899.28;5064072;28;20271;-59
2023/08/01 10:14:34;;;;;;;1.58;0.75;;;;;;;-141.84;83.82;20878.94;5056296;28;20247;-60
2023/08/01 10:17:04;;;;;;;1.60;0.70;;;;;;;-141.84;83.48;20874.88;5063966;28;20282;-59
2023/08/01 10:19:33;;;;;;;1.15;0.80;;;;;;;-141.84;84.07;20862.69;5051769;28;20229;-60
2023/08/01 10:22:05;;;;;;;2.13;1.92;;;;;;;-141.84;84.30;20878.94;5044275;28;20688;-60
2023/08/01 10:24:34;;;;;;;1.58;0.90;;;;;;;-141.84;84.05;20927.72;5036765;28;20308;-59
2023/08/01 10:27:13;;;;;;;1.27;0.90;;;;;;;-141.84;82.35;20986.69;5044115;28;20327;-59
2023/08/01 10:29:42;;;;;;;0.80;0.70;;;;;;;-141.84;81.65;21019.22;5044082;28;20351;-59
2023/08/01 10:32:11;;;;;;;1.50;0.82;;;;;;;-141.84;80.94;21045.63;5059153;28;20229;-61
2023/08/01 10:34:40;;;;;;;1.00;0.70;;;;;;;-141.84;79.72;21084.28;5055648;28;20236;-59
2023/08/01 10:37:10;;;;;;;2.20;0.80;;;;;;;-141.84;79.68;21108.66;5063780;28;20212;-60
2023/08/01 10:39:38;;;;;;;0.82;0.65;;;;;;;-141.84;78.38;21147.28;5064565;28;20323;-59
2023/08/01 10:42:07;;;;;;;0.82;0.80;;;;;;;-141.84;77.25;21210.31;5063640;28;20228;-58
2023/08/01 10:44:46;;;;;;;2.45;0.75;;;;;;;-141.84;76.73;21271.31;5050542;28;20722;-61
2023/08/01 10:47:25;;;;;;;1.08;0.80;;;;;;;-141.84;75.87;21261.16;5063624;28;20274;-58
2023/08/01 10:49:54;;;;;;;0.82;0.75;;;;;;;-141.84;75.12;21346.53;5063250;28;20228;-60
2023/08/01 10:52:27;;;;;;;1.02;0.70;;;19.80;99.90;;;-141.84;72.88;21393.31;5063226;28;20232;-59
2023/08/01 10:55:00;;;;;;;0.80;0.80;;;20.10;99.90;;;-141.84;73.48;21431.94;5062953;28;20654;-59
2023/08/01 10:57:30;;;;;;;2.08;0.52;;;20.30;99.90;;;-141.84;73.94;21415.66;5062892;28;20647;-59
2023/08/01 10:59:59;;;;;;;0.70;0.70;;;;;;;-141.84;74.71;21399.41;5062730;28;20257;-60
2023/08/01 11:02:29;;;;;;;1.65;0.68;;;20.40;99.90;;;-141.84;73.58;21436.00;5061371;28;20241;-58
2023/08/01 11:04:59;;;;;;;1.05;0.95;;;;;;;-141.84;71.14;21517.31;5063603;28;20228;-59
2023/08/01 11:07:30;;;;;;;1.05;0.93;;;20.50;99.90;;;-141.84;69.18;21547.81;5063218;28;20236;-59
2023/08/01 11:10:10;;;;;;;4.00;1.00;;;20.70;99.90;;;-141.84;68.39;21562.06;5063734;28;20232;-60
2023/08/01 11:12:40;;;;;;;1.35;0.90;;;;;;;-141.84;66.95;21619.00;5055766;28;20278;-60
2023/08/01 11:15:10;;;;;;;1.75;1.17;;;;;;;-141.84;66.26;21600.69;5063197;28;20228;-59
2023/08/01 11:17:39;;;;;;;1.73;1.33;;;20.90;99.90;;;-141.84;66.58;21521.41;5062826;28;20232;-59
2023/08/01 11:20:10;;;;;;;1.38;1.25;;;;;;;-141.84;67.35;21606.78;5045746;28;20229;-59
2023/08/01 11:22:54;;;;;;;2.28;1.40;;;20.90;99.90;;;-141.84;65.09;21755.22;5035390;28;20233;-58
2023/08/01 11:25:34;;;;;;;2.00;1.45;;;21.20;99.90;;;-141.84;65.38;21720.66;5043406;28;20571;-61